Time;durP1;ratioP1;P1;durP2;ratioP2;P2;SDS_P1;SDS_P2;PMS_P1;PMS_P2;Temp;Humidity;BMP_temperature;BMP_pressure;BME280_temperature;BME280_humidity;BME280_pressure;Samples;Min_cycle;Max_cycle;Signal;HPM_P1;HPM_P2
2022/05/01 00:01:09;;;;;;;5.68;4.03;;;;;;;;;;5003643;28;20433;-80
2022/05/01 00:03:35;;;;;;;5.57;3.50;;;;;;;;;;5002643;28;20374;-79
2022/05/01 00:06:04;;;;;;;6.40;3.80;;;;;;;;;;5006248;28;20178;-79
2022/05/01 00:08:34;;;;;;;4.57;3.47;;;;;;;;;;5003743;28;20179;-80
2022/05/01 00:11:00;;;;;;;4.60;3.67;;;;;;;;;;4999746;28;20187;-80
2022/05/01 00:13:27;;;;;;;5.97;3.80;;;;;;;;;;5003217;28;20183;-80
2022/05/01 00:15:54;;;;;;;4.93;3.80;;;;;;;;;;4995840;28;20229;-80
2022/05/01 00:18:20;;;;;;;7.28;4.90;;;;;;;;;;4986756;28;20258;-80
2022/05/01 00:20:48;;;;;;;4.78;3.78;;;;;;;;;;4989105;28;20211;-80
2022/05/01 00:23:14;;;;;;;4.40;3.50;;;;;;;;;;4994580;28;20196;-79
2022/05/01 00:25:42;;;;;;;5.50;3.75;;;;;;;;;;4997223;28;20198;-80
2022/05/01 00:28:08;;;;;;;3.70;3.40;;;;;;;;;;4987840;28;20186;-79
2022/05/01 00:30:34;;;;;;;5.30;3.80;;;;;;;;;;5003336;28;20975;-79
2022/05/01 00:38:30;;;;;;;6.07;3.85;;;;;;;;;;5003443;28;20222;-79
2022/05/01 00:40:56;;;;;;;5.13;4.50;;;;;;;;;;4988235;28;20258;-79
2022/05/01 00:43:23;;;;;;;5.47;3.63;;;;;;;;;;4987978;28;20944;-79
2022/05/01 00:45:49;;;;;;;5.13;4.30;;;;;;;;;;5002948;28;20184;-79
2022/05/01 00:48:15;;;;;;;4.95;3.90;;;;;;;;;;5004062;28;20660;-79
2022/05/01 00:50:43;;;;;;;5.47;4.43;;;;;;;;;;5004327;28;20699;-79
2022/05/01 00:53:09;;;;;;;3.67;3.30;;;;;;;;;;4987745;28;20274;-79
2022/05/01 00:55:36;;;;;;;6.30;4.10;;;;;;;;;;5002735;28;20179;-79
2022/05/01 00:58:04;;;;;;;5.20;4.00;;;;;;;;;;4987432;28;20229;-79
2022/05/01 01:00:30;;;;;;;6.70;3.67;;;;;;;;;;5002510;28;20651;-79
2022/05/01 01:02:56;;;;;;;4.20;3.35;;;;;;;;;;5006505;28;20653;-79
2022/05/01 01:05:22;;;;;;;5.47;3.70;;;;;;;;;;4986154;28;20211;-79
2022/05/01 01:07:48;;;;;;;4.85;3.72;;;;;;;;;;4998364;28;20214;-79
2022/05/01 01:10:14;;;;;;;4.97;3.80;;;;;;;;;;5002243;28;20179;-79
2022/05/01 01:12:55;;;;;;;3.83;3.50;;;;;;;;;;4985456;28;20214;-79
2022/05/01 01:15:31;;;;;;;5.82;3.78;;;;;;;;;;4985403;28;20282;-79
2022/05/01 01:17:58;;;;;;;3.97;3.20;;;;;;;;;;4983686;28;20656;-79
2022/05/01 01:20:26;;;;;;;4.10;3.50;;;;;;;;;;4980393;28;20662;-79
2022/05/01 01:22:53;;;;;;;3.80;3.47;;;;;;;;;;5001946;28;20245;-79
2022/05/01 01:25:21;;;;;;;4.60;4.15;;;;;;;;;;4986913;28;20293;-79
2022/05/01 01:27:48;;;;;;;4.47;3.55;;;;;;;;;;5001664;28;20186;-79
2022/05/01 01:32:59;;;;;;;3.72;3.35;;;;;;;;;;5001601;28;20213;-80
2022/05/01 01:35:26;;;;;;;5.28;3.78;;;;;;;;;;4987018;28;20183;-80
2022/05/01 01:37:53;;;;;;;4.40;3.45;;;;;;;;;;5001295;28;20186;-80
2022/05/01 01:40:20;;;;;;;5.40;3.80;;;;;;;;;;5001275;28;20194;-80
2022/05/01 01:42:47;;;;;;;4.82;3.38;;;;;;;;;;4984262;28;20273;-80
2022/05/01 01:45:14;;;;;;;5.03;4.38;;;;;;;;;;5003792;28;20541;-81
2022/05/01 01:47:40;;;;;;;3.88;3.58;;;;;;;;;;5001170;28;20532;-80
2022/05/01 01:50:06;;;;;;;3.37;2.80;;;;;;;;;;5001777;28;20221;-80
2022/05/01 01:52:33;;;;;;;6.22;3.88;;;;;;;;;;5001067;28;20473;-80
2022/05/01 01:55:00;;;;;;;6.45;3.50;;;;;;;;;;4983928;28;20723;-80
2022/05/01 01:57:26;;;;;;;7.18;3.97;;;;;;;;;;4985181;28;20210;-80
2022/05/01 01:59:52;;;;;;;3.90;3.50;;;;;;;;;;5004059;28;20175;-80
2022/05/01 02:02:18;;;;;;;8.02;4.00;;;;;;;;;;4985908;28;20195;-80
2022/05/01 02:04:44;;;;;;;4.95;3.95;;;;;;;;;;4986443;28;20214;-80
2022/05/01 02:07:10;;;;;;;3.77;3.47;;;;;;;;;;4986050;28;20241;-80
2022/05/01 02:09:37;;;;;;;5.50;3.78;;;;;;;;;;5000909;28;20447;-80
2022/05/01 02:12:08;;;;;;;4.38;3.42;;;;;;;;;;4986534;28;20175;-80
2022/05/01 02:14:34;;;;;;;6.53;4.00;;;;;;;;;;5004137;28;20286;-80
2022/05/01 02:17:02;;;;;;;4.05;3.42;;;;;;;;;;5000779;28;20295;-79
2022/05/01 02:19:28;;;;;;;4.97;4.32;;;;;;;;;;5000895;28;20206;-80
2022/05/01 02:21:54;;;;;;;7.45;4.07;;;;;;;;;;5001103;28;20213;-80
2022/05/01 02:24:21;;;;;;;4.15;3.03;;;;;;;;;;4985374;28;20250;-80
2022/05/01 02:26:47;;;;;;;5.32;4.20;;;;;;;;;;5003499;28;20686;-80
2022/05/01 02:29:14;;;;;;;3.60;3.17;;;;;;;;;;5000424;28;20186;-80
2022/05/01 02:31:41;;;;;;;4.82;3.67;;;;;;;;;;4985810;28;20187;-80
2022/05/01 02:34:07;;;;;;;3.92;3.63;;;;;;;;;;5000121;28;20246;-80
2022/05/01 02:36:33;;;;;;;7.00;4.60;;;;;;;;;;4983784;28;20190;-80
2022/05/01 02:38:59;;;;;;;4.30;3.90;;;;;;;;;;4986575;28;20189;-80
2022/05/01 02:41:25;;;;;;;4.88;3.50;;;;;;;;;;4988860;28;20229;-80
2022/05/01 02:43:52;;;;;;;4.25;3.85;;;;;;;;;;4996538;28;20207;-80
2022/05/01 02:46:17;;;;;;;5.13;3.63;;;;;;;;;;5000474;28;20751;-80
2022/05/01 02:48:44;;;;;;;3.78;3.47;;;;;;;;;;5001825;28;20246;-80
2022/05/01 02:51:10;;;;;;;5.20;3.42;;;;;;;;;;5002930;28;20171;-80
2022/05/01 02:53:36;;;;;;;3.97;3.58;;;;;;;;;;5002165;28;20214;-80
2022/05/01 02:56:02;;;;;;;5.82;3.80;;;;;;;;;;4986037;28;20194;-80
2022/05/01 02:58:29;;;;;;;7.35;4.10;;;;;;;;;;5000530;28;20187;-80
2022/05/01 03:00:56;;;;;;;4.65;3.90;;;;;;;;;;5000050;28;20195;-80
2022/05/01 03:03:23;;;;;;;5.55;4.32;;;;;;;;;;4984400;28;20358;-80
2022/05/01 03:05:51;;;;;;;6.90;4.57;;;;;;;;;;5003105;28;20178;-80
2022/05/01 03:08:17;;;;;;;6.35;4.55;;;;;;;;;;4982841;28;20590;-80
2022/05/01 03:10:43;;;;;;;5.90;4.30;;;;;;;;;;4987185;28;20190;-80
2022/05/01 03:13:10;;;;;;;5.60;3.95;;;;;;;;;;4989620;28;20441;-80
2022/05/01 03:15:36;;;;;;;4.90;4.18;;;;;;;;;;5004040;28;20728;-80
2022/05/01 03:23:32;;;;;;;5.47;4.55;;;;;;;;;;5005084;28;20218;-80
2022/05/01 03:25:58;;;;;;;6.47;4.77;;;;;;;;;;5000927;28;20191;-80
2022/05/01 03:28:24;;;;;;;7.78;4.65;;;;;;;;;;4989251;28;20466;-80
2022/05/01 03:30:50;;;;;;;5.85;4.57;;;;;;;;;;5004254;28;20202;-80
2022/05/01 03:33:21;;;;;;;8.30;4.90;;;;;;;;;;5005950;28;20175;-80
2022/05/01 03:35:47;;;;;;;5.75;5.15;;;;;;;;;;5005910;28;20190;-80
2022/05/01 03:38:13;;;;;;;6.63;4.25;;;;;;;;;;5003934;28;20228;-80
2022/05/01 03:40:39;;;;;;;4.55;4.15;;;;;;;;;;5003180;28;20183;-80
2022/05/01 03:43:05;;;;;;;5.97;4.30;;;;;;;;;;5003502;28;20179;-80
2022/05/01 03:45:31;;;;;;;8.77;4.80;;;;;;;;;;4987460;28;20231;-80
2022/05/01 03:47:57;;;;;;;6.07;4.82;;;;;;;;;;4990027;28;20230;-80
2022/05/01 03:50:24;;;;;;;7.82;4.90;;;;;;;;;;5003094;28;20596;-80
2022/05/01 03:52:50;;;;;;;7.35;5.63;;;;;;;;;;4985799;28;20210;-80
2022/05/01 03:55:16;;;;;;;5.80;4.90;;;;;;;;;;4988934;28;20283;-80
2022/05/01 03:57:42;;;;;;;6.72;5.00;;;;;;;;;;4986425;28;20251;-80
2022/05/01 04:00:10;;;;;;;8.00;4.47;;;;;;;;;;5005238;28;20187;-80
2022/05/01 04:02:42;;;;;;;7.72;4.88;;;;;;;;;;4989902;28;20179;-80
2022/05/01 04:05:08;;;;;;;9.02;5.15;;;;;;;;;;4987958;28;20207;-80
2022/05/01 04:07:34;;;;;;;6.25;4.82;;;;;;;;;;5002933;28;20178;-80
2022/05/01 04:10:00;;;;;;;5.83;4.50;;;;;;;;;;5002465;28;20322;-80
2022/05/01 04:12:26;;;;;;;6.97;5.17;;;;;;;;;;5003933;28;20494;-80
2022/05/01 04:14:52;;;;;;;5.68;4.97;;;;;;;;;;5006946;28;20442;-80
2022/05/01 04:17:18;;;;;;;7.60;4.75;;;;;;;;;;4988204;28;20223;-80
2022/05/01 04:19:44;;;;;;;6.93;5.57;;;;;;;;;;5002481;28;20266;-80
2022/05/01 04:22:10;;;;;;;5.93;5.33;;;;;;;;;;4987249;28;20477;-80
2022/05/01 04:24:37;;;;;;;6.73;5.00;;;;;;;;;;5002996;28;20470;-80
2022/05/01 04:27:06;;;;;;;10.30;5.10;;;;;;;;;;5005852;28;20429;-80
2022/05/01 04:29:39;;;;;;;6.00;4.88;;;;;;;;;;5003792;28;20183;-80
2022/05/01 04:32:05;;;;;;;8.52;5.90;;;;;;;;;;5003285;28;20234;-80
2022/05/01 04:34:32;;;;;;;8.75;6.20;;;;;;;;;;4987631;28;20270;-80
2022/05/01 04:36:58;;;;;;;5.70;5.15;;;;;;;;;;5003093;28;20189;-80
2022/05/01 04:39:25;;;;;;;7.07;5.22;;;;;;;;;;5003477;28;20319;-80
2022/05/01 04:41:51;;;;;;;5.00;4.50;;;;;;;;;;5005352;28;20178;-80
2022/05/01 04:44:17;;;;;;;7.20;4.20;;;;;;;;;;5002514;28;20211;-80
2022/05/01 04:46:43;;;;;;;4.38;3.95;;;;;;;;;;4987870;28;20191;-80
2022/05/01 04:49:09;;;;;;;6.70;4.88;;;;;;;;;;4987991;28;20183;-80
2022/05/01 04:51:35;;;;;;;5.35;4.60;;;;;;;;;;5002307;28;20661;-80
2022/05/01 04:54:01;;;;;;;6.88;4.95;;;;;;;;;;5005892;28;20260;-80
2022/05/01 04:59:13;;;;;;;5.57;3.60;;;;;;;;;;5004129;28;20229;-79
2022/05/01 05:01:41;;;;;;;5.03;4.63;;;;;;;;;;4987493;28;20740;-79
2022/05/01 05:04:07;;;;;;;4.40;4.00;;;;;;;;;;5001863;28;20253;-79
2022/05/01 05:06:33;;;;;;;5.95;4.75;;;;;;;;;;4985159;28;20282;-80
2022/05/01 05:11:44;;;;;;;6.68;4.72;;;;;;;;;;5003931;28;20223;-80
2022/05/01 05:14:10;;;;;;;6.90;5.03;;;;;;;;;;5002070;28;20191;-80
2022/05/01 05:16:35;;;;;;;8.85;4.65;;;;;;;;;;5001934;28;20246;-80
2022/05/01 05:19:02;;;;;;;7.30;5.40;;;;;;;;;;5002732;28;20197;-80
2022/05/01 05:21:28;;;;;;;8.00;5.82;;;;;;;;;;4984657;28;20537;-80
2022/05/01 05:23:55;;;;;;;9.48;6.25;;;;;;;;;;5004906;28;20218;-80
2022/05/01 05:26:21;;;;;;;7.47;5.30;;;;;;;;;;5001828;28;20194;-80
2022/05/01 05:28:47;;;;;;;9.05;6.10;;;;;;;;;;5001868;28;20191;-80
2022/05/01 05:31:13;;;;;;;7.27;5.97;;;;;;;;;;5001460;28;20183;-80
2022/05/01 05:33:39;;;;;;;8.40;6.50;;;;;;;;;;5001936;28;20852;-81
2022/05/01 05:36:05;;;;;;;11.57;6.82;;;;;;;;;;4986581;28;20497;-81
2022/05/01 05:38:33;;;;;;;7.45;6.07;;;;;;;;;;4986330;28;20752;-82
2022/05/01 05:40:59;;;;;;;10.57;5.38;;;;;;;;;;5001290;28;20191;-81
2022/05/01 05:43:25;;;;;;;12.85;6.88;;;;;;;;;;5001589;28;20187;-81
2022/05/01 05:45:51;;;;;;;8.18;5.85;;;;;;;;;;5001567;28;20183;-81
2022/05/01 05:48:17;;;;;;;7.70;6.20;;;;;;;;;;5003717;28;20683;-81
2022/05/01 05:50:43;;;;;;;9.55;7.63;;;;;;;;;;5003168;28;20179;-81
2022/05/01 05:53:09;;;;;;;6.20;5.60;;;;;;;;;;4986341;28;20197;-81
2022/05/01 05:55:35;;;;;;;9.85;7.40;;;;;;;;;;4986908;28;20252;-81
2022/05/01 05:58:02;;;;;;;8.73;6.10;;;;;;;;;;5001513;28;20253;-81
2022/05/01 06:00:28;;;;;;;13.85;8.05;;;;;;;;;;5001341;28;20591;-81
2022/05/01 06:02:54;;;;;;;7.07;6.38;;;;;;;;;;5004463;28;20249;-81
2022/05/01 06:05:20;;;;;;;12.15;8.35;;;;;;;;;;4982951;28;20226;-81
2022/05/01 06:07:46;;;;;;;10.27;7.43;;;;;;;;;;4985833;28;20210;-81
2022/05/01 06:10:11;;;;;;;9.63;6.93;;;;;;;;;;5000944;28;20202;-81
2022/05/01 06:12:44;;;;;;;7.85;6.38;;;;;;;;;;5001298;28;20470;-82
2022/05/01 06:15:11;;;;;;;12.02;7.43;;;;;;;;;;5003566;28;20262;-81
2022/05/01 06:17:38;;;;;;;8.98;6.35;;;;;;;;;;5002566;28;20466;-82
2022/05/01 06:20:04;;;;;;;9.63;6.90;;;;;;;;;;5000783;28;20195;-81
2022/05/01 06:22:30;;;;;;;8.43;6.35;;;;;;;;;;4999888;28;20201;-82
2022/05/01 06:24:56;;;;;;;9.48;7.50;;;;;;;;;;4984002;28;20207;-81
2022/05/01 06:27:22;;;;;;;7.88;6.78;;;;;;;;;;4984739;28;20278;-81
2022/05/01 06:29:48;;;;;;;13.32;8.02;;;;;;;;;;4987045;28;20270;-81
2022/05/01 06:32:19;;;;;;;8.07;6.63;;;;;;;;;;4985426;28;20182;-82
2022/05/01 06:34:46;;;;;;;10.38;7.68;;;;;;;;;;4982628;28;20183;-82
2022/05/01 06:37:12;;;;;;;8.57;6.60;;;;;;;;;;5000125;28;20221;-81
2022/05/01 06:39:38;;;;;;;9.05;7.25;;;;;;;;;;5002343;28;20179;-82
2022/05/01 06:42:05;;;;;;;11.60;7.95;;;;;;;;;;4985678;28;20251;-81
2022/05/01 06:44:31;;;;;;;11.93;7.90;;;;;;;;;;4985072;28;20613;-81
2022/05/01 06:46:57;;;;;;;8.02;7.10;;;;;;;;;;5000662;28;20266;-82
2022/05/01 06:49:23;;;;;;;14.23;8.20;;;;;;;;;;4985877;28;20237;-81
2022/05/01 06:51:49;;;;;;;11.48;9.25;;;;;;;;;;4984261;28;20443;-82
2022/05/01 06:54:15;;;;;;;14.38;7.32;;;;;;;;;;4985660;28;20198;-83
2022/05/01 06:56:44;;;;;;;11.33;7.50;;;;;;;;;;5002835;28;20560;-82
2022/05/01 06:59:10;;;;;;;18.25;7.28;;;;;;;;;;4985912;28;20442;-82
2022/05/01 07:01:36;;;;;;;11.93;8.10;;;;;;;;;;4985802;28;20223;-82
2022/05/01 07:04:01;;;;;;;9.10;7.90;;;;;;;;;;4999960;28;20955;-82
2022/05/01 07:06:27;;;;;;;9.77;7.40;;;;;;;;;;5000742;28;20313;-82
2022/05/01 07:08:53;;;;;;;9.37;7.57;;;;;;;;;;5004329;28;20450;-82
2022/05/01 07:11:19;;;;;;;14.20;8.02;;;;;;;;;;4999491;28;20449;-82
2022/05/01 07:13:45;;;;;;;13.88;7.93;;;;;;;;;;4986151;28;20652;-81
2022/05/01 07:16:11;;;;;;;10.02;6.93;;;;;;;;;;4999967;28;20226;-83
2022/05/01 07:18:37;;;;;;;12.15;7.93;;;;;;;;;;4984746;28;20183;-83
2022/05/01 07:21:03;;;;;;;10.27;8.05;;;;;;;;;;4985619;28;20245;-82
2022/05/01 07:23:30;;;;;;;14.18;9.20;;;;;;;;;;5000767;28;20198;-82
2022/05/01 07:25:56;;;;;;;10.73;6.95;;;;;;;;;;5000387;28;20186;-82
2022/05/01 07:28:22;;;;;;;10.30;8.35;;;;;;;;;;4985515;28;20179;-82
2022/05/01 07:30:48;;;;;;;11.48;8.07;;;;;;;;;;4984531;28;20283;-82
2022/05/01 07:33:15;;;;;;;10.23;8.23;;;;;;;;;;5002289;28;20174;-82
2022/05/01 07:35:41;;;;;;;11.57;7.30;;;;;;;;;;4985636;28;20407;-82
2022/05/01 07:38:07;;;;;;;12.35;9.13;;;;;;;;;;4999786;28;20191;-82
2022/05/01 07:40:33;;;;;;;12.25;8.32;;;;;;;;;;4985195;28;20179;-82
2022/05/01 07:42:59;;;;;;;10.77;7.75;;;;;;;;;;5000038;28;20223;-82
2022/05/01 07:45:25;;;;;;;11.18;8.43;;;;;;;;;;4983761;28;20298;-81
2022/05/01 07:47:51;;;;;;;11.00;7.90;;;;;;;;;;5002859;28;20167;-81
2022/05/01 07:50:17;;;;;;;10.67;8.80;;;;;;;;;;4999644;28;20195;-81
2022/05/01 07:52:43;;;;;;;11.63;9.05;;;;;;;;;;4984408;28;20927;-82
2022/05/01 07:55:09;;;;;;;13.32;9.43;;;;;;;;;;4999962;28;20218;-82
2022/05/01 07:57:35;;;;;;;12.40;7.82;;;;;;;;;;4984923;28;20182;-82
2022/05/01 08:00:02;;;;;;;11.70;9.47;;;;;;;;;;5007395;28;20194;-81
2022/05/01 08:04:28;;;;;;;14.10;9.95;;;;;;;;;;5003307;28;20425;-82
2022/05/01 08:05:24;;;;;;;18.25;9.88;;;;;;;;;;5002505;28;20280;-82
2022/05/01 08:07:53;;;;;;;11.82;9.63;;;;;;;;;;5003045;28;20193;-82
2022/05/01 08:10:19;;;;;;;10.40;8.75;;;;;;;;;;5003302;28;20247;-82
2022/05/01 08:12:45;;;;;;;12.80;10.05;;;;;;;;;;4986759;28;20204;-82
2022/05/01 08:15:12;;;;;;;12.25;9.13;;;;;;;;;;5005644;28;20172;-82
2022/05/01 08:17:38;;;;;;;13.73;9.80;;;;;;;;;;5004201;28;20772;-83
2022/05/01 08:22:49;;;;;;;12.20;9.50;;;;;;;;;;5002798;28;20480;-84
2022/05/01 08:25:15;;;;;;;11.00;9.80;;;;;;;;;;5003155;28;20241;-82
2022/05/01 08:27:41;;;;;;;14.17;10.30;;;;;;;;;;5003648;28;20921;-81
2022/05/01 08:30:07;;;;;;;12.07;10.60;;;;;;;;;;4988076;28;20415;-84
2022/05/01 08:32:33;;;;;;;10.25;8.95;;;;;;;;;;5004279;28;20422;-82
2022/05/01 08:34:59;;;;;;;13.80;9.55;;;;;;;;;;4984794;28;20209;-83
2022/05/01 08:37:25;;;;;;;13.20;10.10;;;;;;;;;;4985507;28;20254;-83
2022/05/01 08:39:51;;;;;;;11.75;8.60;;;;;;;;;;5002921;28;20438;-83
2022/05/01 08:42:17;;;;;;;13.13;8.52;;;;;;;;;;5004713;28;20171;-82
2022/05/01 08:44:44;;;;;;;11.25;9.02;;;;;;;;;;4988814;28;20241;-87
2022/05/01 08:47:22;;;;;;;11.00;8.50;;;;;;;;;;5002831;28;20187;-82
2022/05/01 08:49:49;;;;;;;11.43;9.65;;;;;;;;;;5002881;28;20188;-82
2022/05/01 08:52:15;;;;;;;11.27;8.50;;;;;;;;;;5001982;28;20188;-82
2022/05/01 08:54:41;;;;;;;10.98;7.55;;;;;;;;;;4985040;28;20192;-82
2022/05/01 08:57:07;;;;;;;14.88;9.10;;;;;;;;;;5005224;28;20217;-83
2022/05/01 08:59:34;;;;;;;10.80;7.10;;;;;;;;;;5004766;28;20202;-83
2022/05/01 09:02:00;;;;;;;12.25;9.20;;;;;;;;;;5001957;28;20446;-85
2022/05/01 09:04:26;;;;;;;10.52;7.93;;;;;;;;;;4986916;28;20206;-84
2022/05/01 09:06:53;;;;;;;14.82;9.85;;;;;;;;;;4994151;28;20305;-82
2022/05/01 09:09:20;;;;;;;9.30;8.25;;;;;;;;;;5003581;28;20168;-82
2022/05/01 09:14:32;;;;;;;11.60;7.15;;;;;;;;;;5003505;28;20198;-82
2022/05/01 09:17:18;;;;;;;9.02;7.18;;;;;;;;;;5001708;28;20315;-82
2022/05/01 09:19:45;;;;;;;11.50;8.35;;;;;;;;;;4987368;28;20192;-84
2022/05/01 09:22:12;;;;;;;6.78;5.43;;;;;;;;;;5001365;28;20663;-86
2022/05/01 09:24:39;;;;;;;7.28;6.50;;;;;;;;;;4985165;28;20683;-84
2022/05/01 09:27:05;;;;;;;9.40;6.30;;;;;;;;;;5005034;28;20176;-83
2022/05/01 09:29:37;;;;;;;9.88;6.10;;;;;;;;;;4986747;28;20208;-85
2022/05/01 09:32:04;;;;;;;7.38;5.50;;;;;;;;;;4986711;28;20213;-84
2022/05/01 09:34:31;;;;;;;5.53;5.13;;;;;;;;;;5001410;28;20192;-85
2022/05/01 09:36:59;;;;;;;7.47;5.47;;;;;;;;;;5001757;28;20183;-84
2022/05/01 09:39:26;;;;;;;5.28;4.63;;;;;;;;;;5003200;28;20187;-83
2022/05/01 09:41:53;;;;;;;6.15;4.70;;;;;;;;;;4996232;28;20183;-83
2022/05/01 09:44:19;;;;;;;10.68;4.70;;;;;;;;;;4984092;28;20699;-82
2022/05/01 09:46:46;;;;;;;7.75;6.32;;;;;;;;;;5001435;28;20179;-85
2022/05/01 09:49:15;;;;;;;7.35;6.65;;;;;;;;;;4984030;28;20312;-82
2022/05/01 09:51:46;;;;;;;7.03;6.40;;;;;;;;;;4985374;28;20211;-83
2022/05/01 09:54:21;;;;;;;9.60;5.70;;;;;;;;;;4986301;28;20175;-83
2022/05/01 09:56:48;;;;;;;6.20;5.60;;;;;;;;;;4999011;28;20239;-82
2022/05/01 09:59:14;;;;;;;8.05;6.25;;;;;;;;;;4999248;28;20193;-84
2022/05/01 10:01:40;;;;;;;6.53;5.75;;;;;;;;;;4986076;28;20191;-89
2022/05/01 10:04:06;;;;;;;6.80;6.10;;;;;;;;;;5000904;28;20199;-86
2022/05/01 10:06:33;;;;;;;6.88;6.18;;;;;;;;;;4985694;28;20191;-85
2022/05/01 10:09:01;;;;;;;7.20;5.35;;;;;;;;;;5000999;28;20189;-84
2022/05/01 10:11:29;;;;;;;6.80;6.10;;;;;;;;;;4983685;28;20250;-82
2022/05/01 10:13:56;;;;;;;7.63;6.40;;;;;;;;;;4985930;28;20209;-85
2022/05/01 10:16:22;;;;;;;6.50;5.93;;;;;;;;;;4985867;28;20227;-82
2022/05/01 10:18:48;;;;;;;5.90;5.30;;;;;;;;;;5001177;28;20191;-82
2022/05/01 10:21:14;;;;;;;9.10;6.47;;;;;;;;;;5002759;28;20190;-81
2022/05/01 10:23:41;;;;;;;6.40;5.80;;;;;;;;;;4986801;28;20205;-82
2022/05/01 10:26:06;;;;;;;6.68;6.07;;;;;;;;;;4985978;28;20500;-81
2022/05/01 10:28:42;;;;;;;7.90;6.10;;;;;;;;;;5000949;28;20183;-82
2022/05/01 10:34:15;;;;;;;7.40;5.05;;;;;;;;;;5000453;28;20234;-82
2022/05/01 10:37:17;;;;;;;6.80;6.20;;;;;;;;;;4986125;28;20251;-85
2022/05/01 10:39:43;;;;;;;6.65;5.88;;;;;;;;;;4892331;29;20182;-82
2022/05/01 10:42:09;;;;;;;9.40;8.60;;;;;;;;;;4904307;29;20214;-91
2022/05/01 10:44:39;;;;;;;6.22;5.43;;;;;;;;;;4885620;29;20513;-81
2022/05/01 10:47:13;;;;;;;8.93;6.05;;;;;;;;;;4902000;29;20226;-88
2022/05/01 10:49:45;;;;;;;7.28;6.30;;;;;;;;;;4905987;29;20493;-83
2022/05/01 10:52:21;;;;;;;7.30;6.60;;;;;;;;;;4904375;29;20190;-80
2022/05/01 10:54:51;;;;;;;6.65;5.70;;;;;;;;;;4905086;29;20198;-82
2022/05/01 10:57:17;;;;;;;7.15;6.43;;;;;;;;;;4904896;29;20179;-85
2022/05/01 10:59:47;;;;;;;8.15;7.32;;;;;;;;;;4889388;29;20203;-80
2022/05/01 11:02:24;;;;;;;6.07;5.32;;;;;;;;;;4904983;29;20198;-85
2022/05/01 11:04:52;;;;;;;5.25;4.75;;;;;;;;;;4904138;29;20240;-81
2022/05/01 11:07:18;;;;;;;5.40;4.90;;;;;;;;;;4904652;29;20731;-81
2022/05/01 11:09:48;;;;;;;9.77;5.03;;;;;;;;;;4905184;29;20178;-80
2022/05/01 11:12:15;;;;;;;5.78;5.18;;;;;;;;;;4904913;29;20210;-83
2022/05/01 11:14:41;;;;;;;8.00;6.68;;;;;;;;;;4995931;28;20187;-86
2022/05/01 11:17:08;;;;;;;7.10;6.50;;;;;;;;;;4985706;28;20229;-83
2022/05/01 11:19:47;;;;;;;6.40;5.70;;;;;;;;;;5000447;28;20209;-82
2022/05/01 11:22:13;;;;;;;6.75;5.60;;;;;;;;;;5000176;28;20191;-83
2022/05/01 11:24:45;;;;;;;7.50;4.97;;;;;;;;;;5000264;28;20211;-81
2022/05/01 11:27:11;;;;;;;4.82;4.40;;;;;;;;;;4984854;28;20175;-81
2022/05/01 11:29:37;;;;;;;7.70;5.23;;;;;;;;;;5001516;28;20176;-80
2022/05/01 11:32:19;;;;;;;6.05;5.28;;;;;;;;;;4985099;28;20449;-82
2022/05/01 11:34:49;;;;;;;6.72;5.45;;;;;;;;;;5003405;28;20194;-80
2022/05/01 11:37:15;;;;;;;7.38;4.72;;;;;;;;;;4988776;28;20186;-82
2022/05/01 11:39:50;;;;;;;5.93;3.77;;;;;;;;;;5004097;28;20226;-81
2022/05/01 11:42:25;;;;;;;5.05;4.55;;;;;;;;;;4988312;28;20436;-79
2022/05/01 11:44:52;;;;;;;4.90;4.40;;;;;;;;;;4989919;28;20209;-82
2022/05/01 11:47:19;;;;;;;5.05;4.55;;;;;;;;;;4989337;28;20185;-80
2022/05/01 11:49:45;;;;;;;5.03;3.90;;;;;;;;;;5004114;28;20202;-79
2022/05/01 11:52:12;;;;;;;4.50;4.10;;;;;;;;;;4988649;28;20218;-82
2022/05/01 11:54:46;;;;;;;5.68;5.18;;;;;;;;;;4988581;28;20201;-83
2022/05/01 12:02:41;;;;;;;4.30;3.90;;;;;;;;;;5005352;28;20190;-80
2022/05/01 12:05:11;;;;;;;5.47;3.95;;;;;;;;;;5002212;28;20207;-81
2022/05/01 12:07:37;;;;;;;4.78;3.67;;;;;;;;;;5003474;28;20263;-80
2022/05/01 12:10:03;;;;;;;10.17;4.30;;;;;;;;;;4988803;28;20171;-81
2022/05/01 12:12:30;;;;;;;4.30;3.47;;;;;;;;;;4988254;28;20935;-80
2022/05/01 12:14:58;;;;;;;3.88;3.65;;;;;;;;;;5007040;28;20235;-79
2022/05/01 12:17:24;;;;;;;3.55;3.10;;;;;;;;;;5003019;28;20227;-84
2022/05/01 12:19:51;;;;;;;3.97;3.58;;;;;;;;;;5003211;28;20315;-84
2022/05/01 12:22:17;;;;;;;4.13;3.75;;;;;;;;;;5002678;28;20588;-81
2022/05/01 12:24:43;;;;;;;4.20;3.80;;;;;;;;;;5002765;28;20235;-86
2022/05/01 12:27:09;;;;;;;4.05;3.70;;;;;;;;;;4987969;28;20479;-77
2022/05/01 12:29:38;;;;;;;3.83;3.50;;;;;;;;;;4989471;28;20262;-85
2022/05/01 12:32:08;;;;;;;3.83;3.43;;;;;;;;;;5002866;28;20191;-82
2022/05/01 12:34:39;;;;;;;4.23;3.87;;;;;;;;;;5002452;28;20438;-79
2022/05/01 12:37:06;;;;;;;3.67;3.30;;;;;;;;;;5002555;28;20401;-81
2022/05/01 12:39:33;;;;;;;3.90;3.50;;;;;;;;;;4985688;28;20446;-80
2022/05/01 12:45:09;;;;;;;4.87;3.87;;;;;;;;;;5002774;28;20468;-81
2022/05/01 12:47:37;;;;;;;5.27;3.77;;;;;;;;;;5005624;28;20425;-81
2022/05/01 12:50:04;;;;;;;3.93;3.63;;;;;;;;;;5002669;28;20427;-80
2022/05/01 12:52:33;;;;;;;4.13;3.30;;;;;;;;;;5002774;28;20445;-81
2022/05/01 12:55:17;;;;;;;4.23;3.73;;;;;;;;;;4987256;28;20423;-80
2022/05/01 12:57:48;;;;;;;4.23;3.83;;;;;;;;;;4996909;28;20420;-80
2022/05/01 13:00:34;;;;;;;4.50;3.50;;;;;;;;;;5004552;28;20839;-86
2022/05/01 13:03:13;;;;;;;4.33;3.93;;;;;;;;;;5006514;28;20473;-80
2022/05/01 13:05:39;;;;;;;3.13;2.83;;;;;;;;;;5005112;28;20763;-81
2022/05/01 13:08:18;;;;;;;4.07;3.33;;;;;;;;;;4986649;28;20450;-81
2022/05/01 13:10:44;;;;;;;3.30;3.00;;;;;;;;;;5002003;28;20429;-85
2022/05/01 13:13:10;;;;;;;4.50;3.90;;;;;;;;;;5002390;28;20405;-81
2022/05/01 13:15:37;;;;;;;3.53;3.13;;;;;;;;;;5002421;28;20443;-83
2022/05/01 13:18:03;;;;;;;5.37;4.27;;;;;;;;;;5005265;28;20886;-80
2022/05/01 13:20:30;;;;;;;4.03;3.20;;;;;;;;;;5002781;28;20408;-82
2022/05/01 13:22:55;;;;;;;3.57;3.27;;;;;;;;;;4987092;28;20458;-81
2022/05/01 13:25:21;;;;;;;3.87;3.57;;;;;;;;;;4986970;28;20452;-87
2022/05/01 13:27:48;;;;;;;5.10;3.80;;;;;;;;;;4986311;28;20414;-82
2022/05/01 13:30:13;;;;;;;3.90;3.57;;;;;;;;;;4986340;28;20424;-88
2022/05/01 13:32:39;;;;;;;2.93;2.70;;;;;;;;;;4985501;28;20436;-84
2022/05/01 13:35:05;;;;;;;5.40;3.23;;;;;;;;;;5001408;28;20912;-80
2022/05/01 13:37:34;;;;;;;3.40;3.10;;;;;;;;;;4986381;28;20793;-81
2022/05/01 13:45:30;;;;;;;2.97;2.67;;;;;;;;;;4986311;28;20457;-82
2022/05/01 13:47:56;;;;;;;4.20;3.37;;;;;;;;;;4988346;28;20765;-80
2022/05/01 13:50:24;;;;;;;3.57;3.20;;;;;;;;;;5001435;28;20434;-79
2022/05/01 13:52:50;;;;;;;3.43;3.10;;;;;;;;;;5000836;28;20951;-82
2022/05/01 13:55:16;;;;;;;3.80;3.50;;;;;;;;;;4984802;28;20434;-85
2022/05/01 13:57:43;;;;;;;3.40;2.60;;;;;;;;;;5001374;28;20465;-84
2022/05/01 14:00:10;;;;;;;3.20;2.90;;;;;;;;;;5003885;28;20417;-80
2022/05/01 14:02:37;;;;;;;3.45;3.15;;;;;;;;;;5002790;28;20242;-84
2022/05/01 14:05:03;;;;;;;3.90;3.50;;;;;;;;;;5000188;28;20732;-84
2022/05/01 14:07:29;;;;;;;3.45;3.25;;;;;;;;;;4984050;28;20321;-84
2022/05/01 14:09:55;;;;;;;4.20;2.75;;;;;;;;;;5001358;28;20181;-80
2022/05/01 14:12:21;;;;;;;5.17;2.67;;;;;;;;;;5002571;28;20191;-80
2022/05/01 14:14:48;;;;;;;2.72;2.53;;;;;;;;;;5003207;28;20429;-81
2022/05/01 14:17:14;;;;;;;3.10;2.85;;;;;;;;;;5000982;28;20225;-82
2022/05/01 14:19:41;;;;;;;3.60;3.30;;;;;;;;;;4987076;28;20674;-84
2022/05/01 14:22:08;;;;;;;3.45;3.15;;;;;;;;;;4985260;28;20196;-84
2022/05/01 14:24:35;;;;;;;7.50;3.67;;;;;;;;;;5000648;28;20203;-82
2022/05/01 14:27:01;;;;;;;3.53;2.80;;;;;;;;;;4987086;28;20198;-83
2022/05/01 14:29:27;;;;;;;2.75;2.55;;;;;;;;;;4985336;28;20617;-84
2022/05/01 14:32:01;;;;;;;3.33;3.03;;;;;;;;;;5001286;28;20193;-83
2022/05/01 14:34:27;;;;;;;5.40;2.58;;;;;;;;;;4984947;28;20507;-90
2022/05/01 14:36:57;;;;;;;4.37;3.33;;;;;;;;;;4984457;28;20275;-81
2022/05/01 14:39:26;;;;;;;3.20;3.00;;;;;;;;;;5002072;28;20427;-81
2022/05/01 14:41:55;;;;;;;2.58;2.38;;;;;;;;;;4995524;28;20189;-81
2022/05/01 14:44:29;;;;;;;2.88;2.67;;;;;;;;;;5000621;28;20200;-81
2022/05/01 14:46:56;;;;;;;3.33;3.03;;;;;;;;;;4983170;28;20212;-81
2022/05/01 14:49:37;;;;;;;2.80;2.60;;;;;;;;;;5001128;28;20211;-82
2022/05/01 14:52:04;;;;;;;3.20;2.90;;;;;;;;;;4986049;28;20188;-81
2022/05/01 14:54:35;;;;;;;3.20;2.80;;;;;;;;;;4985165;28;20237;-81
2022/05/01 14:57:04;;;;;;;3.65;2.70;;;;;;;;;;5001133;28;20189;-83
2022/05/01 15:07:54;;;;;;;3.47;3.17;;;;;;;;;;5004911;28;20217;-81
2022/05/01 15:10:23;;;;;;;3.25;2.38;;;;;;;;;;5004078;28;20218;-84
2022/05/01 15:12:50;;;;;;;3.50;2.78;;;;;;;;;;5004855;28;20189;-81
2022/05/01 15:15:17;;;;;;;4.15;3.20;;;;;;;;;;5007054;28;20175;-80
2022/05/01 15:17:47;;;;;;;4.35;2.75;;;;;;;;;;5001273;28;20240;-82
2022/05/01 15:20:20;;;;;;;2.85;2.65;;;;;;;;;;5002088;28;20183;-81
2022/05/01 15:22:49;;;;;;;4.38;3.30;;;;;;;;;;5003992;28;20211;-81
2022/05/01 15:25:17;;;;;;;3.15;2.95;;;;;;;;;;5003730;28;20199;-82
2022/05/01 15:27:46;;;;;;;3.88;2.58;;;;;;;;;;5004252;28;20185;-82
2022/05/01 15:30:13;;;;;;;2.83;2.63;;;;;;;;;;5006346;28;20184;-80
2022/05/01 15:35:36;;;;;;;2.55;2.35;;;;;;;;;;5006091;28;20218;-80